Flight Track Log - Related Links

Times and Time Zones

All times are in EDT time to prevent confusion due to time zone crossing. See the XOJ549 flight status page for this flight to view local times or setup timezone preferences in your user account.

Time Position Orientation Groundspeed Altitude Reporting Facility
EDT Latitude Longitude Course Direction KTS MPH feet Rate Location/Type
Sun 09:12:42 AM 34.1667 -118.4833 270° West 164 189 1,800  Level Southern California TRACON
Sun 09:13:42 AM 34.1667 -118.5333 270° West 204 235 3,800 1,370 Climbing Southern California TRACON
Sun 09:14:14 AM 34.1811 -118.5467 323° Northwest 207 238 3,900 1,239 Climbing Los Angeles Center
Sun 09:15:14 AM 34.2394 -118.5242 18° North 216 249 5,700 2,281 Climbing Los Angeles Center
Sun 09:16:15 AM 34.2992 -118.4728 35° Northeast 257 296 8,500 2,607 Climbing Los Angeles Center
Sun 09:17:16 AM 34.3633 -118.4186 35° Northeast 278 320 11,000 2,331 Climbing Los Angeles Center
Sun 09:18:16 AM 34.4361 -118.3586 34° Northeast 313 360 13,200 2,033 Climbing Los Angeles Center
Sun 09:19:17 AM 34.5047 -118.2703 47° Northeast 362 417 15,100 2,016 Climbing Los Angeles Center
Sun 09:20:18 AM 34.5692 -118.1672 53° Northeast 383 441 17,300 2,479 Climbing Los Angeles Center
Sun 09:21:18 AM 34.6319 -118.0464 58° Northeast 388 447 20,100 2,628 Climbing Los Angeles Center
Sun 09:22:19 AM 34.6469 -117.9172 82° East 391 450 22,600 2,213 Climbing Los Angeles Center
Sun 09:23:20 AM 34.6614 -117.7869 82° East 392 451 24,600 1,934 Climbing Los Angeles Center
Sun 09:24:20 AM 34.6756 -117.6522 83° East 405 466 26,500 1,636 Climbing Los Angeles Center
Sun 09:25:21 AM 34.6908 -117.5142 82° East 415 478 27,900 1,328 Climbing Los Angeles Center
Sun 09:26:22 AM 34.7056 -117.3703 83° East 432 497 29,200 1,377 Climbing Los Angeles Center
Sun 09:27:23 AM 34.7236 -117.1919 83° East 444 511 30,700 1,388 Climbing Los Angeles Center
Sun 09:28:23 AM 34.7389 -117.0406 83° East 451 519 32,000 1,240 Climbing Los Angeles Center
Sun 09:29:24 AM 34.7528 -116.8864 84° East 458 527 33,200 1,082 Climbing Los Angeles Center
Sun 09:30:25 AM 34.7683 -116.7303 83° East 465 535 34,200 934 Climbing Los Angeles Center
Sun 09:31:26 AM 34.7839 -116.5700 83° East 474 545 35,100 1,230 Climbing Los Angeles Center
Sun 09:32:27 AM 34.7978 -116.4103 84° East 478 550 36,700 1,686 Climbing Los Angeles Center
Sun 09:33:27 AM 34.8056 -116.2539 86° East 472 543 38,500 1,488 Climbing Los Angeles Center
Sun 09:34:28 AM 34.8067 -116.1050 89° East 453 521 39,700 984 Climbing Los Angeles Center
Sun 09:35:29 AM 34.8122 -115.9547 87° East 446 513 40,500 639 Climbing Los Angeles Center
Sun 09:36:30 AM 34.8169 -115.8036 88° East 448 516 41,000 246 Climbing Los Angeles Center
Sun 09:37:31 AM 34.8203 -115.6506 88° East 453 521 41,000  Level Los Angeles Center
Sun 09:38:32 AM 34.8253 -115.4714 88° East 465 535 41,000  Level Los Angeles Center
Sun 09:39:33 AM 34.8292 -115.3175 88° East 458 527 41,000  Level Los Angeles Center
Sun 09:40:34 AM 34.8328 -115.1658 88° East 452 520 41,000  Level Los Angeles Center
Sun 09:41:35 AM 34.8369 -115.0156 88° East 446 513 41,000  Level Los Angeles Center
Sun 09:42:36 AM 34.8397 -114.8653 89° East 446 513 41,000  Level Los Angeles Center
Sun 09:43:37 AM 34.8428 -114.7142 89° East 447 514 41,000  Level Los Angeles Center
Sun 09:44:38 AM 34.8450 -114.5611 89° East 452 520 41,000  Level Los Angeles Center
Sun 09:45:39 AM 34.8483 -114.4075 88° East 453 521 41,000  Level Los Angeles Center
Sun 09:46:40 AM 34.8508 -114.2158 89° East 468 539 41,000  Level Los Angeles Center
Sun 09:47:41 AM 34.8536 -114.0569 89° East 470 541 41,000  Level Los Angeles Center
Sun 09:48:43 AM 34.8542 -113.9075 90° East 466 536 41,000  Level Los Angeles Center
Sun 09:49:39 AM 34.8472 -113.7508 93° East 465 535 41,000  Level Albuquerque Center
Sun 09:50:40 AM 34.8383 -113.5933 94° East 468 539 41,000  Level Albuquerque Center
Sun 09:51:41 AM 34.8303 -113.4361 94° East 471 542 41,000  Level Albuquerque Center
Sun 09:52:42 AM 34.8208 -113.2797 94° East 471 542 41,000  Level Albuquerque Center
Sun 09:53:43 AM 34.8133 -113.1253 93° East 467 537 41,000  Level Albuquerque Center
Sun 09:54:45 AM 34.8047 -112.9717 94° East 463 533 41,000  Level Albuquerque Center
Sun 09:55:46 AM 34.7972 -112.8183 93° East 462 532 41,000  Level Albuquerque Center
Sun 09:56:47 AM 34.7861 -112.6356 94° East 459 528 41,000  Level Albuquerque Center
Sun 09:57:48 AM 34.7775 -112.4822 94° East 460 529 41,000  Level Albuquerque Center
Sun 09:58:49 AM 34.7689 -112.3286 94° East 460 529 41,000  Level Albuquerque Center
Sun 09:59:50 AM 34.7597 -112.1744 94° East 462 532 41,000  Level Albuquerque Center
Sun 10:00:51 AM 34.7494 -112.0114 94° East 459 528 41,000  Level Albuquerque Center
Sun 10:01:52 AM 34.7281 -111.8567 100° East 462 532 41,000  Level Albuquerque Center
Sun 10:02:53 AM 34.7044 -111.7050 101° East 458 527 41,000  Level Albuquerque Center
Sun 10:03:54 AM 34.6794 -111.5522 101° East 459 528 41,000  Level Albuquerque Center
Sun 10:04:56 AM 34.6556 -111.4006 101° East 457 526 41,000  Level Albuquerque Center
Sun 10:05:57 AM 34.6314 -111.2478 101° East 458 527 41,000  Level Albuquerque Center
Sun 10:06:58 AM 34.6078 -111.0933 100° East 462 532 41,000  Level Albuquerque Center
Sun 10:07:59 AM 34.5822 -110.9386 101° East 465 535 41,000  Level Albuquerque Center
Sun 10:09:00 AM 34.5572 -110.7861 101° East 462 532 41,000  Level Albuquerque Center
Sun 10:10:02 AM 34.5322 -110.6331 101° East 462 532 41,000  Level Albuquerque Center
Sun 10:11:03 AM 34.5017 -110.4503 101° East 462 532 41,000  Level Albuquerque Center
Sun 10:12:04 AM 34.4772 -110.3089 102° East 460 529 41,000  Level Albuquerque Center
Sun 10:13:05 AM 34.4489 -110.1419 102° East 456 525 41,000  Level Albuquerque Center
Sun 10:14:07 AM 34.4233 -109.9961 102° East 460 529 41,000  Level Albuquerque Center
Sun 10:15:08 AM 34.3947 -109.8269 102° East 460 529 41,000  Level Albuquerque Center
Sun 10:16:09 AM 34.3697 -109.6822 102° East 460 529 41,000  Level Albuquerque Center
Sun 10:17:11 AM 34.3447 -109.5369 102° East 459 528 41,000  Level Albuquerque Center
Sun 10:18:12 AM 34.3147 -109.3681 102° East 462 532 41,000  Level Albuquerque Center
Sun 10:19:13 AM 34.2911 -109.2375 102° East 461 531 41,000  Level Albuquerque Center
Sun 10:20:15 AM 34.2639 -109.0867 102° East 461 531 41,000  Level Albuquerque Center
Sun 10:21:16 AM 34.2314 -108.9058 102° East 461 531 41,000  Level Albuquerque Center
Sun 10:22:17 AM 34.2039 -108.7586 103° East 458 527 41,000  Level Albuquerque Center
Sun 10:23:19 AM 34.1783 -108.6117 102° East 452 520 41,000  Level Albuquerque Center
Sun 10:24:20 AM 34.1508 -108.4633 103° East 454 522 41,000  Level Albuquerque Center
Sun 10:25:22 AM 34.1228 -108.3156 103° East 455 524 41,000  Level Albuquerque Center
Sun 10:26:23 AM 34.0950 -108.1681 103° East 454 522 41,000  Level Albuquerque Center
Sun 10:27:25 AM 34.0619 -108.0058 104° East 458 527 41,000  Level Albuquerque Center
Sun 10:28:26 AM 34.0336 -107.8550 103° East 459 528 41,000  Level Albuquerque Center
Sun 10:29:28 AM 34.0044 -107.7075 103° East 457 526 41,000  Level Albuquerque Center
Sun 10:30:29 AM 33.9769 -107.5586 103° East 454 522 41,000  Level Albuquerque Center
Sun 10:31:31 AM 33.9467 -107.4097 104° East 456 525 41,000  Level Albuquerque Center
Sun 10:32:32 AM 33.9119 -107.2314 103° East 456 525 41,000  Level Albuquerque Center
Sun 10:33:34 AM 33.8831 -107.0822 103° East 456 525 41,000  Level Albuquerque Center
Sun 10:34:36 AM 33.8533 -106.9311 103° East 460 529 41,000  Level Albuquerque Center
Sun 10:35:37 AM 33.8231 -106.7797 103° East 463 533 41,000  Level Albuquerque Center
Sun 10:36:39 AM 33.7922 -106.6286 104° East 464 534 41,000  Level Albuquerque Center
Sun 10:37:40 AM 33.7614 -106.4769 104° East 465 535 41,000  Level Albuquerque Center
Sun 10:38:42 AM 33.7303 -106.3253 104° East 465 535 41,000  Level Albuquerque Center
Sun 10:39:44 AM 33.6997 -106.1750 104° East 464 534 41,000  Level Albuquerque Center
Sun 10:40:46 AM 33.6622 -105.9939 104° East 464 534 41,000  Level Albuquerque Center
Sun 10:41:47 AM 33.6306 -105.8447 104° East 463 533 41,000  Level Albuquerque Center
Sun 10:42:49 AM 33.5994 -105.6936 104° East 464 534 41,000  Level Albuquerque Center
Sun 10:43:51 AM 33.5642 -105.5333 105° East 462 532 41,000  Level Albuquerque Center
Sun 10:44:52 AM 33.5336 -105.3842 104° East 463 533 41,000  Level Albuquerque Center
Sun 10:45:54 AM 33.4992 -105.2225 104° East 466 536 41,000  Level Albuquerque Center
Sun 10:46:56 AM 33.4667 -105.0739 105° East 462 532 41,000  Level Albuquerque Center
Sun 10:47:57 AM 33.4344 -104.9269 105° East 459 528 41,000  Level Albuquerque Center
Sun 10:48:59 AM 33.4008 -104.7697 104° East 453 521 41,000  Level Albuquerque Center
Sun 10:50:01 AM 33.3739 -104.6425 104° East 456 525 41,000  Level Albuquerque Center
Sun 10:51:02 AM 33.3394 -104.4908 105° East 471 542 41,000  Level Albuquerque Center
Sun 10:52:04 AM 33.3017 -104.3178 105° East 463 533 41,000  Level Albuquerque Center
Sun 10:53:06 AM 33.2667 -104.1578 105° East 463 533 41,000  Level Albuquerque Center
Sun 10:54:07 AM 33.2333 -104.0111 105° East 461 531 41,000  Level Albuquerque Center
Sun 10:55:09 AM 33.2003 -103.8631 105° East 462 532 41,000  Level Albuquerque Center
Sun 10:56:11 AM 33.1639 -103.7031 105° East 465 535 41,000  Level Albuquerque Center
Sun 10:57:13 AM 33.1356 -103.5731 105° East 463 533 41,000  Level Albuquerque Center
Sun 10:58:14 AM 33.1000 -103.4250 106° East 466 536 41,000  Level Albuquerque Center
Sun 10:58:59 AM 33.0725 -103.3081 106° East 464 534 41,000  Level Fort Worth Center
Sun 10:59:59 AM 33.0397 -103.1597 105° East 464 534 41,000  Level Fort Worth Center
Sun 11:00:59 AM 33.0047 -103.0114 106° East 464 534 41,000  Level Fort Worth Center
Sun 11:01:59 AM 32.9694 -102.8656 106° East 464 534 41,000  Level Fort Worth Center
Sun 11:02:59 AM 32.9361 -102.7175 105° East 464 534 41,000  Level Fort Worth Center
Sun 11:03:59 AM 32.9006 -102.5719 106° East 464 534 41,000  Level Fort Worth Center
Sun 11:04:59 AM 32.8611 -102.4089 106° East 464 534 41,000  Level Fort Worth Center
Sun 11:05:59 AM 32.8272 -102.2611 105° East 464 534 41,000  Level Fort Worth Center
Sun 11:06:59 AM 32.7892 -102.1133 107° East 464 534 41,000  Level Fort Worth Center
Sun 11:07:59 AM 32.7528 -101.9681 107° East 464 534 41,000  Level Fort Worth Center
Sun 11:08:59 AM 32.7161 -101.8231 107° East 464 534 41,000 350 Level Fort Worth Center
Sun 11:09:59 AM 32.6794 -101.6781 107° East 469 540 41,700 750 Climbing Fort Worth Center
Sun 11:10:59 AM 32.6444 -101.5358 106° East 458 527 42,500 750 Climbing Fort Worth Center
Sun 11:11:59 AM 32.6094 -101.3914 106° East 458 527 43,200 650 Climbing Fort Worth Center
Sun 11:12:59 AM 32.5758 -101.2664 108° East 452 520 43,800 600 Climbing Fort Worth Center
Sun 11:13:59 AM 32.5383 -101.1269 108° East 446 513 44,400 600 Climbing Fort Worth Center
Sun 11:14:59 AM 32.5047 -100.9853 106° East 446 513 45,000 300 Climbing Fort Worth Center
Sun 11:15:59 AM 32.4692 -100.8433 107° East 446 513 45,000  Level Fort Worth Center
Sun 11:16:59 AM 32.4333 -100.7017 107° East 446 513 45,000  Level Fort Worth Center
Sun 11:17:59 AM 32.3953 -100.5578 107° East 446 513 45,000  Level Fort Worth Center
Sun 11:18:59 AM 32.3569 -100.4136 107° East 446 513 45,000  Level Fort Worth Center
Sun 11:19:59 AM 32.3186 -100.2700 107° East 446 513 45,000  Level Fort Worth Center
Sun 11:20:59 AM 32.2761 -100.1064 107° East 458 527 45,000  Level Fort Worth Center
Sun 11:21:59 AM 32.2375 -99.9628 108° East 458 527 45,000 -400 Level Fort Worth Center
Sun 11:22:59 AM 32.2008 -99.8169 107° East 458 527 44,200 -900 Descending Fort Worth Center
Sun 11:23:59 AM 32.1594 -99.6736 109° East 463 533 43,200 -600 Descending Fort Worth Center
Sun 11:24:59 AM 32.1225 -99.5278 107° East 463 533 43,000 -100 Descending Fort Worth Center
Sun 11:25:59 AM 32.0850 -99.3822 107° East 463 533 43,000  Level Fort Worth Center
Sun 11:26:59 AM 32.0456 -99.2369 108° East 463 533 43,000  Level Fort Worth Center
Sun 11:27:59 AM 32.0078 -99.0917 107° East 463 533 43,000  Level Fort Worth Center
Sun 11:28:59 AM 31.9658 -98.9489 109° East 463 533 43,000  Level Fort Worth Center
Sun 11:29:59 AM 31.9278 -98.8036 107° East 463 533 43,000  Level Fort Worth Center
Sun 11:30:59 AM 31.8917 -98.6783 109° East 458 527 43,000  Level Fort Worth Center
Sun 11:31:59 AM 31.8472 -98.5189 108° East 465 535 43,000  Level Fort Worth Center
Sun 11:32:59 AM 31.8089 -98.3692 107° East 465 535 43,000  Level Fort Worth Center
Sun 11:33:59 AM 31.7681 -98.2247 108° East 465 535 43,000  Level Fort Worth Center
Sun 11:34:59 AM 31.7272 -98.0803 108° East 470 541 43,000  Level Fort Worth Center
Sun 11:35:59 AM 31.6861 -97.9333 108° East 470 541 43,000  Level Fort Worth Center
Sun 11:36:59 AM 31.6450 -97.7819 108° East 470 541 43,000  Level Fort Worth Center
Sun 11:37:59 AM 31.6036 -97.6328 108° East 470 541 43,000  Level Fort Worth Center
Sun 11:38:59 AM 31.5619 -97.4889 109° East 470 541 43,000  Level Fort Worth Center
Sun 11:39:59 AM 31.5244 -97.3547 108° East 470 541 43,000  Level Fort Worth Center
Sun 11:40:39 AM 31.4958 -97.2600 109° East 479 551 43,000  Level Houston Center
Sun 11:41:41 AM 31.4528 -97.1086 108° East 482 555 43,000  Level Houston Center
Sun 11:42:43 AM 31.4081 -96.9572 109° East 486 559 43,000  Level Houston Center
Sun 11:43:45 AM 31.3572 -96.7814 109° East 483 556 43,000  Level Houston Center
Sun 11:44:47 AM 31.3128 -96.6300 109° East 491 565 43,000  Level Houston Center
Sun 11:46:00 AM 31.2572 -96.4667 108° East  Level FlightAware Approximate
Sun 11:46:51 AM 31.2222 -96.3278 108° East 492 566 43,000  Level Houston Center
Sun 11:47:53 AM 31.1767 -96.1781 110° East 488 562 43,000  Level Houston Center
Sun 11:48:55 AM 31.1314 -96.0342 110° East 487 560 43,000  Level Houston Center
Sun 11:49:56 AM 31.0867 -95.8858 109° East 492 566 43,000  Level Houston Center
Sun 11:50:58 AM 31.0319 -95.7069 110° East 494 568 43,000  Level Houston Center
Sun 11:52:00 AM 30.9861 -95.5589 110° East 494 568 43,000  Level Houston Center
Sun 11:53:02 AM 30.9414 -95.4097 109° East 489 563 43,000  Level Houston Center
Sun 11:54:04 AM 30.8953 -95.2608 110° East 488 562 43,000  Level Houston Center
Sun 11:55:06 AM 30.8500 -95.1136 110° East 487 560 43,000  Level Houston Center
Sun 11:56:08 AM 30.7950 -94.9369 110° East 488 562 43,000  Level Houston Center
Sun 11:57:10 AM 30.7486 -94.7878 110° East 492 566 43,000  Level Houston Center
Sun 11:58:12 AM 30.7006 -94.6383 110° East 496 571 43,000  Level Houston Center
Sun 11:59:14 AM 30.6514 -94.4769 109° East 498 573 43,000  Level Houston Center
Sun 12:00:16 PM 30.6036 -94.3278 110° East 496 571 43,000  Level Houston Center
Sun 12:01:18 PM 30.5567 -94.1786 110° East 493 567 43,000  Level Houston Center
Sun 12:02:20 PM 30.5100 -94.0303 110° East 491 565 43,000  Level Houston Center
Sun 12:03:22 PM 30.4619 -93.8831 111° Southeast 490 564 43,000  Level Houston Center
Sun 12:04:24 PM 30.4039 -93.7036 111° Southeast 497 572 43,000  Level Houston Center
Sun 12:05:26 PM 30.3533 -93.5478 111° Southeast 498 573 43,000  Level Houston Center
Sun 12:06:29 PM 30.3033 -93.4003 111° Southeast 495 570 43,000  Level Houston Center
Sun 12:07:31 PM 30.2514 -93.2356 110° East 508 585 43,000  Level Houston Center
Sun 12:08:33 PM 30.2044 -93.0931 111° Southeast 487 560 43,000  Level Houston Center
Sun 12:09:35 PM 30.1572 -92.9500 111° Southeast 479 551 43,000  Level Houston Center
Sun 12:10:37 PM 30.1092 -92.8075 111° Southeast 478 550 43,000  Level Houston Center
Sun 12:11:39 PM 30.0619 -92.6633 111° Southeast 480 552 43,000  Level Houston Center
Sun 12:12:41 PM 30.0133 -92.5172 111° Southeast 478 550 43,000  Level Houston Center
Sun 12:13:43 PM 29.9567 -92.3506 111° Southeast 477 549 43,000  Level Houston Center
Sun 12:14:45 PM 29.9086 -92.2069 111° Southeast 480 552 43,000  Level Houston Center
Sun 12:15:47 PM 29.8586 -92.0617 112° Southeast 487 560 43,000  Level Houston Center
Sun 12:16:49 PM 29.8094 -91.9144 111° Southeast 492 566 43,000  Level Houston Center
Sun 12:17:51 PM 29.7586 -91.7661 112° Southeast 498 573 43,000  Level Houston Center
Sun 12:18:53 PM 29.7028 -91.6050 112° Southeast 486 559 43,000  Level Houston Center
Sun 12:19:56 PM 29.6556 -91.4681 112° Southeast 466 536 43,000  Level Houston Center
Sun 12:20:58 PM 29.6078 -91.3264 111° Southeast 474 545 43,000  Level Houston Center
Sun 12:22:00 PM 29.5583 -91.1858 112° Southeast 477 549 43,000  Level Houston Center
Sun 12:23:02 PM 29.5064 -91.0172 109° East 469 540 43,000  Level Houston Center
Sun 12:24:04 PM 29.4636 -90.8750 109° East 472 543 43,000 -48 Level Houston Center
Sun 12:25:06 PM 29.4217 -90.7325 109° East 473 544 42,900  Descending Houston Center
Sun 12:26:08 PM 29.3789 -90.5914 109° East 473 544 43,000 48 Climbing Houston Center
Sun 12:27:10 PM 29.3364 -90.4494 109° East 472 543 43,000  Level Houston Center
Sun 12:28:12 PM 29.2861 -90.2797 109° East 472 543 43,000 -48 Level Houston Center
Sun 12:29:14 PM 29.2433 -90.1394 109° East 471 542 42,900  Descending Houston Center
Sun 12:30:17 PM 29.1994 -89.9967 109° East 475 547 43,000 48 Climbing Houston Center
Sun 12:31:19 PM 29.1558 -89.8539 109° East 477 549 43,000  Level Houston Center
Sun 12:32:21 PM 29.1119 -89.7103 109° East 478 550 43,000  Level Houston Center
Sun 12:33:23 PM 29.0600 -89.5375 109° East 481 554 43,000  Level Houston Center
Sun 12:34:25 PM 29.0156 -89.3939 109° East 482 555 43,000 339 Level Houston Center
Sun 12:35:27 PM 28.9728 -89.2528 109° East 475 547 43,700 726 Climbing Houston Center
Sun 12:36:29 PM 28.9289 -89.1136 110° East 469 540 44,500 629 Climbing Houston Center
Sun 12:37:31 PM 28.8867 -88.9769 109° East 460 529 45,000 242 Climbing Houston Center
Sun 12:38:33 PM 28.8439 -88.8417 110° East 455 524 45,000  Level Houston Center
Sun 12:39:35 PM 28.7936 -88.6797 109° East 452 520 45,000  Level Houston Center
Sun 12:40:37 PM 28.7519 -88.5447 109° East 453 521 45,000  Level Houston Center
Sun 12:41:39 PM 28.7089 -88.4128 110° East 446 513 45,000  Level Houston Center
Sun 12:42:41 PM 28.6664 -88.2789 110° East 448 516 45,000  Level Houston Center
Sun 12:43:43 PM 28.6247 -88.1475 110° East 443 510 45,000  Level Houston Center
Sun 12:44:45 PM 28.5797 -88.0067 110° East 444 511 45,000 -48 Level Houston Center
Sun 12:45:47 PM 28.5372 -87.8758 110° East 442 509 44,900  Descending Houston Center
Sun 12:46:49 PM 28.4947 -87.7444 110° East 443 510 45,000 48 Climbing Houston Center
Sun 12:47:51 PM 28.4428 -87.5856 110° East 449 517 45,000  Level Houston Center
Sun 12:48:53 PM 28.3989 -87.4517 110° East 453 521 45,000  Level Houston Center
Sun 12:49:55 PM 28.3561 -87.3161 110° East 457 526 45,000  Level Houston Center
Sun 12:50:57 PM 28.3122 -87.1833 111° Southeast 452 520 45,000  Level Houston Center
Sun 12:51:28 PM 28.2853 -87.1067 112° Southeast 454 522 45,000  Level Jacksonville Center
Sun 12:52:28 PM 28.2417 -86.9706 110° East 454 522 45,000  Level Jacksonville Center
Sun 12:53:28 PM 28.1978 -86.8417 111° Southeast 454 522 45,000  Level Jacksonville Center
Sun 12:54:28 PM 28.1536 -86.7153 112° Southeast 446 513 45,000  Level Jacksonville Center
Sun 12:55:28 PM 28.1097 -86.5747 109° East 444 511 45,000  Level Jacksonville Center
Sun 12:56:28 PM 28.0633 -86.4486 113° Southeast 442 509 45,000  Level Jacksonville Center
Sun 12:57:28 PM 28.0208 -86.3200 110° East 442 509 45,000  Level Jacksonville Center
Sun 12:58:28 PM 27.9783 -86.1894 110° East 431 496 45,000  Level Jacksonville Center
Sun 12:59:28 PM 27.9378 -86.0658 110° East 432 497 45,000  Level Jacksonville Center
Sun 01:01:21 PM 27.8519 -85.8206 112° Southeast 438 504 45,000  Level Miami Center
Sun 01:03:21 PM 27.7675 -85.5703 111° Southeast 440 506 45,000  Level Miami Center
Sun 01:04:22 PM 27.7231 -85.4428 111° Southeast 434 499 45,000 -50 Level Miami Center
Sun 01:05:22 PM 27.6822 -85.3228 111° Southeast 434 499 44,900  Descending Miami Center
Sun 01:06:22 PM 27.6369 -85.2047 113° Southeast 429 494 45,000 -700 Climbing Miami Center
Sun 01:08:22 PM 27.5475 -84.9456 111° Southeast 434 499 42,800 -1,233 Descending Miami Center
Sun 01:09:22 PM 27.5067 -84.8167 110° East 439 505 41,300 -1,513 Descending Miami Center
Sun 01:10:21 PM 27.4875 -84.6728 99° East 451 519 39,800 -1,500 Descending Miami Center
Sun 01:11:22 PM 27.4869 -84.5278 90° East 456 525 38,300 -2,132 Descending Miami Center
Sun 01:12:22 PM 27.4800 -84.3847 93° East 456 525 35,500 -3,050 Descending Miami Center
Sun 01:13:22 PM 27.4772 -84.2372 91° East 463 533 32,200 -3,378 Descending Miami Center
Sun 01:14:21 PM 27.4722 -84.0872 92° East 473 544 28,800 -3,300 Descending Miami Center
Sun 01:15:22 PM 27.4628 -83.9417 94° East 473 544 25,600 -3,150 Descending Miami Center
Sun 01:16:21 PM 27.4611 -83.8061 91° East 455 524 22,500 -3,000 Descending Miami Center
Sun 01:17:22 PM 27.4547 -83.6772 93° East 430 495 19,600 -2,777 Descending Miami Center
Sun 01:18:22 PM 27.4475 -83.5622 94° East 396 456 16,900 -2,600 Descending Miami Center
Sun 01:19:22 PM 27.4464 -83.4500 91° East 371 427 14,400 -2,471 Descending Miami Center
Sun 01:20:21 PM 27.4514 -83.3425 87° East 358 412 12,000 -2,400 Descending Miami Center
Sun 01:21:22 PM 27.4539 -83.2400 88° East 340 391 9,600 -2,231 Descending Miami Center
Sun 01:22:22 PM 27.4581 -83.1442 87° East 315 362 7,500 -2,100 Descending Miami Center
Sun 01:23:22 PM 27.4661 -83.0511 84° East 303 349 5,400 -1,550 Descending Miami Center
Sun 01:24:22 PM 27.4700 -82.9625 87° East 296 341 4,400 -750 Descending Miami Center
Sun 01:25:22 PM 27.4692 -82.8853 91° East 272 313 3,900 -165 Descending Miami Center
Sun 01:26:11 PM 27.4667 -82.8167 92° East 227 261 4,100 110 Climbing Tampa TRACON
Sun 01:27:11 PM 27.4667 -82.7500 90° East 225 259 4,100 -650 Level Tampa TRACON
Sun 01:28:11 PM 27.4667 -82.6667 90° East 232 267 2,800 -903 Descending Tampa TRACON
Sun 01:30:17 PM 27.4500 -82.5833 103° East 164 189 1,300 -800 Descending Tampa TRACON
Sun 01:31:11 PM 27.4167 -82.5667 156° South 144 166 400 -1,000 Descending Tampa TRACON
Sun 01:33:00 PM 27.3954 -82.5544 103° East  Level Estimated
Sun 01:40:00 PM 27.3954 -82.5544 103° East  Level Estimated
Sun 01:41:00 PM 27.3954 -82.5544 103° East  Level Estimated

Login

Don't have an account? Register now (free) for customized features, flight alerts, and more!